Time;durP1;ratioP1;P1;durP2;ratioP2;P2;SDS_P1;SDS_P2;PMS_P1;PMS_P2;Temp;Humidity;BMP_temperature;BMP_pressure;BME280_temperature;BME280_humidity;BME280_pressure;Samples;Min_cycle;Max_cycle;Signal;HPM_P1;HPM_P2
2021/10/24 00:00:10;;;;;;;7.73;5.00;;;6.60;99.90;;;;;;5033735;28;20434;-57
2021/10/24 00:02:37;;;;;;;4.53;4.03;;;6.60;99.90;;;;;;5033365;28;20251;-58
2021/10/24 00:05:04;;;;;;;4.40;4.00;;;6.60;99.90;;;;;;5033480;28;20433;-59
2021/10/24 00:07:30;;;;;;;8.13;5.20;;;6.60;99.90;;;;;;5033700;28;20402;-52
2021/10/24 00:09:56;;;;;;;5.90;4.87;;;6.60;99.90;;;;;;5033071;28;20445;-50
2021/10/24 00:12:21;;;;;;;5.73;5.13;;;6.50;99.90;;;;;;5033331;28;20250;-52
2021/10/24 00:14:47;;;;;;;5.53;4.70;;;6.50;99.90;;;;;;5033168;28;20457;-49
2021/10/24 00:17:13;;;;;;;9.50;5.37;;;6.50;99.90;;;;;;5033415;28;20586;-49
2021/10/24 00:19:38;;;;;;;4.90;4.40;;;6.50;99.90;;;;;;5033092;28;20282;-50
2021/10/24 00:22:04;;;;;;;10.40;5.00;;;6.50;99.90;;;;;;5033092;28;20234;-51
2021/10/24 00:24:31;;;;;;;5.27;4.70;;;6.50;99.90;;;;;;5033052;28;20201;-50
2021/10/24 00:26:56;;;;;;;5.63;5.13;;;6.50;99.90;;;;;;5033151;28;21025;-55
2021/10/24 00:29:22;;;;;;;7.20;4.97;;;6.40;99.90;;;;;;5033348;28;20509;-58
2021/10/24 00:31:49;;;;;;;4.53;4.10;;;6.40;99.90;;;;;;5033186;28;20183;-58
2021/10/24 00:34:14;;;;;;;6.53;4.27;;;6.30;99.90;;;;;;5033841;28;20234;-56
2021/10/24 00:36:40;;;;;;;6.77;5.20;;;6.30;99.90;;;;;;5033117;28;20922;-54
2021/10/24 00:39:06;;;;;;;7.10;5.10;;;6.30;99.90;;;;;;5034222;28;20206;-51
2021/10/24 00:41:32;;;;;;;5.27;4.07;;;6.30;99.90;;;;;;5037225;28;20167;-52
2021/10/24 00:43:59;;;;;;;7.97;4.33;;;6.30;99.90;;;;;;5037515;28;20190;-51
2021/10/24 00:46:25;;;;;;;9.20;5.03;;;6.20;99.90;;;;;;5037302;28;20606;-50
2021/10/24 00:48:51;;;;;;;5.53;4.60;;;6.20;99.90;;;;;;5036831;28;20464;-50
2021/10/24 00:51:18;;;;;;;4.53;4.03;;;6.20;99.90;;;;;;5036963;28;20821;-50
2021/10/24 00:53:44;;;;;;;6.00;4.77;;;6.10;99.90;;;;;;5036935;28;20409;-51
2021/10/24 00:56:11;;;;;;;6.40;4.63;;;6.10;99.90;;;;;;5036900;28;20527;-49
2021/10/24 00:58:38;;;;;;;6.37;4.23;;;6.10;99.90;;;;;;5037056;28;20210;-54
2021/10/24 01:01:03;;;;;;;6.00;4.23;;;6.00;99.90;;;;;;5036919;28;20408;-52
2021/10/24 01:03:29;;;;;;;4.33;3.93;;;6.10;99.90;;;;;;5036671;28;20481;-52
2021/10/24 01:05:59;;;;;;;4.57;3.70;;;6.00;99.90;;;;;;5036562;28;20180;-50
2021/10/24 01:08:24;;;;;;;4.30;3.90;;;6.00;99.90;;;;;;5036581;28;20171;-50
2021/10/24 01:10:50;;;;;;;6.87;4.87;;;6.00;99.90;;;;;;5036291;28;20552;-51
2021/10/24 01:13:16;;;;;;;5.63;4.40;;;6.00;99.90;;;;;;5036655;28;20167;-51
2021/10/24 01:15:43;;;;;;;6.80;3.50;;;5.90;99.90;;;;;;5036496;28;20465;-51
2021/10/24 01:18:09;;;;;;;7.23;4.60;;;5.90;99.90;;;;;;5036629;28;20164;-50
2021/10/24 01:20:35;;;;;;;6.80;4.00;;;5.90;99.90;;;;;;5036646;28;20525;-53
2021/10/24 01:23:01;;;;;;;6.93;4.23;;;5.90;99.90;;;;;;5036435;28;20867;-50
2021/10/24 01:25:26;;;;;;;5.37;4.47;;;5.90;99.90;;;;;;5036044;28;20163;-50
2021/10/24 01:27:53;;;;;;;6.50;4.03;;;5.90;99.90;;;;;;5036355;28;20171;-49
2021/10/24 01:30:19;;;;;;;6.50;3.80;;;5.90;99.90;;;;;;5038800;28;20245;-57
2021/10/24 01:32:45;;;;;;;4.53;4.13;;;5.90;99.90;;;;;;5036162;28;20406;-59
2021/10/24 01:35:11;;;;;;;5.47;4.30;;;5.70;99.90;;;;;;5036218;28;20809;-58
2021/10/24 01:37:42;;;;;;;5.87;4.07;;;5.70;99.90;;;;;;5035994;28;20398;-49
2021/10/24 01:40:13;;;;;;;4.83;4.07;;;5.60;99.90;;;;;;5035737;28;20485;-50
2021/10/24 01:42:54;;;;;;;5.23;4.50;;;5.60;99.90;;;;;;5036500;28;20819;-49
2021/10/24 01:45:23;;;;;;;7.17;6.37;;;5.60;99.90;;;;;;5036292;28;20390;-59
2021/10/24 01:47:50;;;;;;;7.87;4.70;;;5.60;99.90;;;;;;5037252;28;20417;-59
2021/10/24 01:50:16;;;;;;;5.53;4.40;;;5.60;99.90;;;;;;5034755;28;20939;-56
2021/10/24 01:52:43;;;;;;;5.87;5.23;;;5.60;99.90;;;;;;5035715;28;20497;-58
2021/10/24 01:55:13;;;;;;;8.67;4.90;;;5.60;99.90;;;;;;5035344;28;20454;-58
2021/10/24 01:57:42;;;;;;;7.40;4.10;;;5.60;99.90;;;;;;5035633;28;20406;-57
2021/10/24 02:00:08;;;;;;;7.30;5.40;;;5.70;99.90;;;;;;5035521;28;20421;-57
2021/10/24 02:02:34;;;;;;;7.47;5.40;;;5.60;99.90;;;;;;5034376;28;20918;-58
2021/10/24 02:05:00;;;;;;;10.00;6.90;;;5.60;99.90;;;;;;5035834;28;20412;-54
2021/10/24 02:07:25;;;;;;;10.93;8.77;;;5.60;99.90;;;;;;5035536;28;20691;-58
2021/10/24 02:09:51;;;;;;;7.53;6.10;;;5.50;99.90;;;;;;5035204;28;20488;-57
2021/10/24 02:12:17;;;;;;;7.90;5.40;;;5.50;99.90;;;;;;5035784;28;20221;-58
2021/10/24 02:14:42;;;;;;;7.00;5.37;;;5.40;99.90;;;;;;5035403;28;20219;-58
2021/10/24 02:17:08;;;;;;;5.90;4.60;;;5.40;99.90;;;;;;5034103;28;20632;-58
2021/10/24 02:19:33;;;;;;;6.43;5.70;;;5.40;99.90;;;;;;5035330;28;20262;-56
2021/10/24 02:21:59;;;;;;;4.77;4.30;;;5.50;99.90;;;;;;5035457;28;20694;-57
2021/10/24 02:24:24;;;;;;;8.13;4.80;;;5.50;99.90;;;;;;5035168;28;20179;-59
2021/10/24 02:26:50;;;;;;;6.03;5.40;;;5.50;99.90;;;;;;5035488;28;20250;-58
2021/10/24 02:29:16;;;;;;;5.77;4.60;;;5.50;99.90;;;;;;5035062;28;20215;-59
2021/10/24 02:31:41;;;;;;;6.73;5.87;;;5.40;99.90;;;;;;5037104;28;20633;-57
2021/10/24 02:34:07;;;;;;;6.37;5.37;;;5.30;99.90;;;;;;5048687;28;20632;-58
2021/10/24 02:36:32;;;;;;;7.93;5.37;;;5.30;99.90;;;;;;5055038;28;20198;-59
2021/10/24 02:38:58;;;;;;;7.73;6.90;;;5.30;99.90;;;;;;5040004;28;20249;-50
2021/10/24 02:41:24;;;;;;;7.50;6.03;;;5.30;99.90;;;;;;5035333;28;20179;-50
2021/10/24 02:43:49;;;;;;;8.73;5.63;;;5.30;99.90;;;;;;5035315;28;20671;-58
2021/10/24 02:46:15;;;;;;;10.63;8.27;;;5.30;99.90;;;;;;5034808;28;20182;-58
2021/10/24 02:48:41;;;;;;;6.23;5.70;;;5.30;99.90;;;;;;5035065;28;20589;-52
2021/10/24 02:51:06;;;;;;;8.70;7.30;;;5.20;99.90;;;;;;5034828;28;20243;-49
2021/10/24 02:53:32;;;;;;;8.53;6.27;;;5.20;99.90;;;;;;5034858;28;20175;-58
2021/10/24 02:55:57;;;;;;;8.40;7.30;;;5.20;99.90;;;;;;5035466;28;20195;-56
2021/10/24 02:58:23;;;;;;;13.40;12.10;;;5.20;99.90;;;;;;5039617;28;20175;-53
2021/10/24 03:00:48;;;;;;;13.13;11.77;;;5.30;99.90;;;;;;5039398;28;20193;-50
2021/10/24 03:03:14;;;;;;;11.30;8.97;;;5.20;99.90;;;;;;5041479;28;20258;-50
2021/10/24 03:05:40;;;;;;;11.07;9.87;;;5.20;99.90;;;;;;5044267;28;20202;-58
2021/10/24 03:08:05;;;;;;;9.90;8.03;;;5.20;99.90;;;;;;5044068;28;20171;-59
2021/10/24 03:10:31;;;;;;;6.63;6.00;;;5.20;99.90;;;;;;5036967;28;20202;-59
2021/10/24 03:12:56;;;;;;;9.30;6.07;;;5.20;99.90;;;;;;5034505;28;20262;-57
2021/10/24 03:15:22;;;;;;;10.80;5.67;;;5.20;99.90;;;;;;5034604;28;20192;-59
2021/10/24 03:17:48;;;;;;;12.53;9.20;;;5.10;99.90;;;;;;5034291;28;20174;-57
2021/10/24 03:20:13;;;;;;;14.67;12.33;;;5.20;99.90;;;;;;5034577;28;20622;-59
2021/10/24 03:22:39;;;;;;;8.83;7.23;;;5.20;99.90;;;;;;5034340;28;20578;-59
2021/10/24 03:25:05;;;;;;;6.10;5.50;;;5.20;99.90;;;;;;5033920;28;20179;-57
2021/10/24 03:27:31;;;;;;;7.20;4.40;;;5.10;99.90;;;;;;5034146;28;20183;-50
2021/10/24 03:29:59;;;;;;;8.60;6.80;;;5.10;99.90;;;;;;5034693;28;20433;-49
2021/10/24 03:32:25;;;;;;;7.33;5.20;;;5.00;99.90;;;;;;5035028;28;20760;-49
2021/10/24 03:34:51;;;;;;;13.00;6.10;;;5.00;99.90;;;;;;5037040;28;20448;-48
2021/10/24 03:37:16;;;;;;;7.17;4.80;;;5.10;99.90;;;;;;5035176;28;20682;-57
2021/10/24 03:39:42;;;;;;;7.80;4.90;;;5.00;99.90;;;;;;5034678;28;20226;-55
2021/10/24 03:42:07;;;;;;;6.93;5.70;;;5.10;99.90;;;;;;5034847;28;20251;-57
2021/10/24 03:44:33;;;;;;;6.70;5.63;;;5.20;99.90;;;;;;5035210;28;20167;-57
2021/10/24 03:46:59;;;;;;;7.30;5.10;;;5.20;99.90;;;;;;5035927;28;20566;-58
2021/10/24 03:49:24;;;;;;;5.07;4.57;;;5.10;99.90;;;;;;5036131;28;20295;-50
2021/10/24 03:51:50;;;;;;;8.87;5.60;;;5.10;99.90;;;;;;5036503;28;20261;-49
2021/10/24 03:54:16;;;;;;;6.07;4.20;;;5.10;99.90;;;;;;5037662;28;20500;-49
2021/10/24 03:56:41;;;;;;;7.33;5.50;;;5.10;99.90;;;;;;5036919;28;20210;-49
2021/10/24 03:59:08;;;;;;;7.43;5.40;;;5.10;99.90;;;;;;5035849;28;20276;-55
2021/10/24 04:01:33;;;;;;;9.20;5.13;;;5.00;99.90;;;;;;5034462;28;20171;-58
2021/10/24 04:03:59;;;;;;;9.70;5.53;;;5.00;99.90;;;;;;5033740;28;20433;-56
2021/10/24 04:06:24;;;;;;;7.73;5.07;;;5.00;99.90;;;;;;5033757;28;20224;-57
2021/10/24 04:08:50;;;;;;;7.13;4.73;;;5.00;99.90;;;;;;5033750;28;20218;-54
2021/10/24 04:11:16;;;;;;;9.57;4.80;;;5.00;99.90;;;;;;5033881;28;20171;-54
2021/10/24 04:13:42;;;;;;;5.63;4.57;;;5.10;99.90;;;;;;5033857;28;20167;-56
2021/10/24 04:16:08;;;;;;;7.60;6.00;;;5.00;99.90;;;;;;5034742;28;20225;-55
2021/10/24 04:18:34;;;;;;;7.57;5.70;;;4.90;99.90;;;;;;5033760;28;20449;-57
2021/10/24 04:20:59;;;;;;;5.40;4.87;;;4.90;99.90;;;;;;5034758;28;20414;-55
2021/10/24 04:23:25;;;;;;;5.83;5.20;;;4.90;99.90;;;;;;5035470;28;20171;-59
2021/10/24 04:25:50;;;;;;;9.07;4.93;;;5.00;99.90;;;;;;5034277;28;20533;-55
2021/10/24 04:28:17;;;;;;;6.50;5.13;;;5.00;99.90;;;;;;5034623;28;20175;-54
2021/10/24 04:30:44;;;;;;;8.07;6.03;;;5.10;99.90;;;;;;5034616;28;20174;-58
2021/10/24 04:33:09;;;;;;;5.90;5.10;;;4.90;99.90;;;;;;5034198;28;20774;-55
2021/10/24 04:35:35;;;;;;;5.73;5.10;;;4.90;99.90;;;;;;5034253;28;20459;-58
2021/10/24 04:38:01;;;;;;;9.90;6.13;;;4.90;99.90;;;;;;5033338;28;20160;-56
2021/10/24 04:40:26;;;;;;;6.20;5.50;;;5.00;99.90;;;;;;5032647;28;20369;-58
2021/10/24 04:42:52;;;;;;;9.67;7.40;;;5.00;99.90;;;;;;5033157;28;20163;-58
2021/10/24 04:45:18;;;;;;;9.23;6.00;;;5.10;99.90;;;;;;5032263;28;20171;-58
2021/10/24 04:47:43;;;;;;;7.33;6.07;;;5.20;99.90;;;;;;5033241;28;20168;-58
2021/10/24 04:50:09;;;;;;;9.77;6.57;;;5.10;99.90;;;;;;5033641;28;20730;-58
2021/10/24 04:52:37;;;;;;;8.83;7.20;;;5.00;99.90;;;;;;5033767;28;20203;-56
2021/10/24 04:55:05;;;;;;;9.37;7.33;;;5.10;99.90;;;;;;5033793;28;20453;-58
2021/10/24 04:57:30;;;;;;;9.13;7.43;;;5.10;99.90;;;;;;5033749;28;20398;-57
2021/10/24 04:59:56;;;;;;;9.80;7.30;;;5.10;99.90;;;;;;5035855;28;20429;-58
2021/10/24 05:02:22;;;;;;;10.97;8.50;;;5.10;99.90;;;;;;5034571;28;20179;-58
2021/10/24 05:04:48;;;;;;;12.40;7.10;;;5.10;99.90;;;;;;5033717;28;20198;-59
2021/10/24 05:07:13;;;;;;;9.13;6.60;;;5.10;99.90;;;;;;5034010;28;20221;-56
2021/10/24 05:09:39;;;;;;;7.33;5.30;;;5.10;99.90;;;;;;5033119;28;20265;-57
2021/10/24 05:12:05;;;;;;;8.67;5.00;;;5.10;99.90;;;;;;5034027;28;20179;-59
2021/10/24 05:14:30;;;;;;;10.23;5.70;;;5.10;99.90;;;;;;5033658;28;20206;-58
2021/10/24 05:16:56;;;;;;;8.40;5.90;;;5.00;99.90;;;;;;5033537;28;20167;-57
2021/10/24 05:19:22;;;;;;;6.80;6.20;;;5.10;99.90;;;;;;5032686;28;20183;-57
2021/10/24 05:21:47;;;;;;;7.30;6.13;;;5.00;99.90;;;;;;5032715;28;20159;-58
2021/10/24 05:24:13;;;;;;;12.77;7.97;;;5.00;99.90;;;;;;5032769;28;20175;-57
2021/10/24 05:26:38;;;;;;;6.07;5.50;;;5.00;99.90;;;;;;5050588;28;20196;-57
2021/10/24 05:29:04;;;;;;;5.77;5.20;;;5.00;99.90;;;;;;5056234;28;20717;-58
2021/10/24 05:31:30;;;;;;;8.90;5.90;;;5.00;99.90;;;;;;5043607;28;20183;-56
2021/10/24 05:33:55;;;;;;;7.07;5.13;;;5.00;99.90;;;;;;5036252;28;20174;-56
2021/10/24 05:36:21;;;;;;;7.03;5.30;;;5.00;99.90;;;;;;5035892;28;20195;-55
2021/10/24 05:41:18;;;;;;;5.80;5.30;;;4.80;99.90;;;;;;5049174;22;20234;-53
2021/10/24 05:43:44;;;;;;;8.90;5.37;;;4.80;99.90;;;;;;5032174;28;20395;-52
2021/10/24 05:46:09;;;;;;;9.83;6.40;;;4.80;99.90;;;;;;5034284;28;20171;-53
2021/10/24 05:48:35;;;;;;;7.87;6.50;;;4.90;99.90;;;;;;5036096;28;20607;-53
2021/10/24 05:51:01;;;;;;;8.53;6.70;;;4.90;99.90;;;;;;5036433;28;20278;-54
2021/10/24 05:53:26;;;;;;;9.57;7.80;;;4.80;99.90;;;;;;5035687;28;20171;-52
2021/10/24 05:55:52;;;;;;;9.07;6.93;;;4.70;99.90;;;;;;5035078;28;20183;-51
2021/10/24 05:58:17;;;;;;;10.50;5.80;;;4.70;99.90;;;;;;5035821;28;20739;-55
2021/10/24 06:00:44;;;;;;;10.77;6.77;;;4.80;99.90;;;;;;5035287;28;20183;-54
2021/10/24 06:03:09;;;;;;;7.60;6.63;;;4.80;99.90;;;;;;5035602;28;20225;-53
2021/10/24 06:05:35;;;;;;;6.67;5.97;;;4.80;99.90;;;;;;5035258;28;20884;-52
2021/10/24 06:08:02;;;;;;;9.10;6.70;;;4.80;99.90;;;;;;5035398;28;20174;-53
2021/10/24 06:10:34;;;;;;;9.43;6.13;;;4.80;99.90;;;;;;5034877;28;20484;-53
2021/10/24 06:13:00;;;;;;;6.50;5.83;;;4.80;99.90;;;;;;5035582;28;20758;-53
2021/10/24 06:15:26;;;;;;;8.13;6.13;;;4.80;99.90;;;;;;5035106;28;20450;-50
2021/10/24 06:17:52;;;;;;;11.10;7.37;;;4.80;99.90;;;;;;5035199;28;20480;-52
2021/10/24 06:20:19;;;;;;;8.17;5.60;;;4.80;99.90;;;;;;5035079;28;20187;-50
2021/10/24 06:22:45;;;;;;;8.10;5.47;;;4.80;99.90;;;;;;5035265;28;20394;-53
2021/10/24 06:25:13;;;;;;;5.90;5.30;;;4.90;99.90;;;;;;5035466;28;20808;-55
2021/10/24 06:27:40;;;;;;;9.00;5.07;;;4.90;99.90;;;;;;5035940;28;20254;-50
2021/10/24 06:30:09;;;;;;;23.57;6.23;;;4.90;99.90;;;;;;5034789;28;20480;-55
2021/10/24 06:32:35;;;;;;;5.20;4.07;;;4.90;99.90;;;;;;5034741;28;20409;-50
2021/10/24 06:35:01;;;;;;;6.57;5.50;;;4.90;99.90;;;;;;5034683;28;20978;-50
2021/10/24 06:37:35;;;;;;;12.47;6.43;;;5.00;99.90;;;;;;5034087;28;20410;-52
2021/10/24 06:40:02;;;;;;;5.90;5.40;;;5.00;99.90;;;;;;5034045;28;20445;-51
2021/10/24 06:42:28;;;;;;;5.20;4.07;;;5.00;99.90;;;;;;5034444;28;20759;-50
2021/10/24 06:44:53;;;;;;;9.20;5.20;;;5.00;99.90;;;;;;5034564;28;20409;-52
2021/10/24 06:47:20;;;;;;;8.43;5.17;;;5.10;99.90;;;;;;5034475;28;20174;-52
2021/10/24 06:49:45;;;;;;;7.10;5.17;;;5.10;99.90;;;;;;5034278;28;20277;-49
2021/10/24 06:52:11;;;;;;;7.70;5.50;;;5.20;99.90;;;;;;5034275;28;20437;-52
2021/10/24 06:54:36;;;;;;;6.83;5.00;;;5.20;99.90;;;;;;5034317;28;20667;-51
2021/10/24 06:57:02;;;;;;;5.53;4.87;;;5.30;99.90;;;;;;5033879;28;20164;-50
2021/10/24 06:59:28;;;;;;;5.30;4.57;;;5.30;99.90;;;;;;5034265;28;20213;-50
2021/10/24 07:01:53;;;;;;;11.00;5.47;;;5.30;99.90;;;;;;5034422;28;20532;-51
2021/10/24 07:04:19;;;;;;;6.50;4.97;;;5.40;99.90;;;;;;5034346;28;20164;-54
2021/10/24 07:06:45;;;;;;;4.83;4.33;;;5.40;99.90;;;;;;5034396;28;20213;-55
2021/10/24 07:09:11;;;;;;;5.40;4.67;;;5.50;99.90;;;;;;5034086;28;20919;-55
2021/10/24 07:11:36;;;;;;;5.20;4.70;;;5.50;99.90;;;;;;5034098;28;20171;-52
2021/10/24 07:14:02;;;;;;;6.00;4.30;;;5.50;99.90;;;;;;5034807;28;20191;-54
2021/10/24 07:16:28;;;;;;;8.10;4.50;;;5.50;99.90;;;;;;5033907;28;20273;-53
2021/10/24 07:18:53;;;;;;;8.20;5.53;;;5.50;99.90;;;;;;5034278;28;20498;-54
2021/10/24 07:21:19;;;;;;;8.53;5.40;;;5.50;99.90;;;;;;5034597;28;20163;-54
2021/10/24 07:23:44;;;;;;;6.03;5.10;;;5.60;99.90;;;;;;5034332;28;20224;-55
2021/10/24 07:26:10;;;;;;;7.07;5.17;;;5.70;99.90;;;;;;5033431;28;20207;-55
2021/10/24 07:28:36;;;;;;;10.00;5.60;;;5.70;99.90;;;;;;5033846;28;20179;-55
2021/10/24 07:31:01;;;;;;;6.93;5.33;;;5.80;99.90;;;;;;5033589;28;20628;-55
2021/10/24 07:33:27;;;;;;;7.63;5.10;;;5.90;99.90;;;;;;5030630;28;20605;-53
2021/10/24 07:35:52;;;;;;;6.67;4.67;;;6.00;99.90;;;;;;5033630;28;20192;-51
2021/10/24 07:38:18;;;;;;;5.27;4.77;;;6.00;99.90;;;;;;5033883;28;20168;-53
2021/10/24 07:40:49;;;;;;;7.20;5.53;;;6.20;99.90;;;;;;5033043;28;20556;-54
2021/10/24 07:43:16;;;;;;;6.87;5.00;;;6.20;99.90;;;;;;5033855;28;20155;-52
2021/10/24 07:45:42;;;;;;;8.63;5.67;;;6.30;99.90;;;;;;5033350;28;20903;-52
2021/10/24 07:48:08;;;;;;;9.90;6.20;;;6.40;99.90;;;;;;5032555;28;20414;-52
2021/10/24 07:50:34;;;;;;;7.93;5.93;;;6.50;99.90;;;;;;5033124;28;20530;-53
2021/10/24 07:53:01;;;;;;;8.30;6.53;;;6.60;99.90;;;;;;5033314;28;20636;-55
2021/10/24 07:55:27;;;;;;;7.17;5.73;;;6.70;99.90;;;;;;5033035;28;20269;-53
2021/10/24 07:57:55;;;;;;;10.13;7.50;;;6.70;99.90;;;;;;5033221;28;20433;-53
2021/10/24 08:00:21;;;;;;;7.10;5.50;;;6.80;99.90;;;;;;5033140;28;20429;-53
2021/10/24 08:02:47;;;;;;;9.33;6.60;;;6.90;99.90;;;;;;5033296;28;20414;-50
2021/10/24 08:05:14;;;;;;;9.30;7.50;;;7.00;99.90;;;;;;5033367;28;20172;-50
2021/10/24 08:07:40;;;;;;;6.80;5.97;;;7.00;99.90;;;;;;5033421;28;20756;-53
2021/10/24 08:10:07;;;;;;;9.27;7.30;;;7.10;99.90;;;;;;5032933;28;20441;-52
2021/10/24 08:12:33;;;;;;;8.40;7.13;;;7.30;99.90;;;;;;5048748;28;20410;-54
2021/10/24 08:14:59;;;;;;;7.80;6.40;;;7.30;99.90;;;;;;5033557;28;20474;-51
2021/10/24 08:17:25;;;;;;;14.77;7.97;;;7.50;99.90;;;;;;5032995;28;20762;-53
2021/10/24 08:19:51;;;;;;;7.87;7.07;;;7.60;99.90;;;;;;5033256;28;20184;-52
2021/10/24 08:22:18;;;;;;;8.83;6.63;;;7.70;99.90;;;;;;5032940;28;20411;-51
2021/10/24 08:24:45;;;;;;;9.70;7.43;;;7.80;99.90;;;;;;5033387;28;20172;-55
2021/10/24 08:27:11;;;;;;;8.60;6.40;;;8.00;99.90;;;;;;5032821;28;20820;-50
2021/10/24 08:29:37;;;;;;;8.30;6.60;;;8.10;99.90;;;;;;5026650;28;20440;-51
2021/10/24 08:32:05;;;;;;;8.50;6.97;;;8.00;99.90;;;;;;5032019;28;20408;-53
2021/10/24 08:34:31;;;;;;;8.03;6.80;;;8.20;99.90;;;;;;5023094;28;20416;-54
2021/10/24 08:36:57;;;;;;;8.53;7.17;;;8.30;99.90;;;;;;5033894;28;20521;-49
2021/10/24 08:39:23;;;;;;;9.77;7.03;;;8.30;99.90;;;;;;5033012;28;20222;-50
2021/10/24 08:41:50;;;;;;;7.70;6.93;;;8.40;99.90;;;;;;5033021;28;20156;-50
2021/10/24 08:44:16;;;;;;;9.53;8.00;;;8.60;99.90;;;;;;5031912;28;20430;-50
2021/10/24 08:46:43;;;;;;;8.53;7.73;;;8.60;99.90;;;;;;5033178;28;20397;-52
2021/10/24 08:49:09;;;;;;;7.90;7.10;;;8.70;99.90;;;;;;5034111;28;20413;-53
2021/10/24 08:51:35;;;;;;;10.33;8.40;;;8.80;99.90;;;;;;5033393;28;20412;-52
2021/10/24 08:54:02;;;;;;;10.80;9.00;;;8.80;99.90;;;;;;5033431;28;20496;-55
2021/10/24 08:56:30;;;;;;;8.13;7.30;;;8.70;99.90;;;;;;5032642;28;20512;-54
2021/10/24 08:58:57;;;;;;;9.17;8.03;;;8.80;99.90;;;;;;5032919;28;20415;-52
2021/10/24 09:01:23;;;;;;;10.20;8.20;;;8.70;99.90;;;;;;5033436;28;20498;-52
2021/10/24 09:04:09;;;;;;;9.67;8.67;;;8.80;99.90;;;;;;5036422;28;20404;-52
2021/10/24 09:06:55;;;;;;;10.40;9.40;;;8.90;99.90;;;;;;5036577;28;20174;-51
2021/10/24 09:09:25;;;;;;;10.43;7.97;;;9.10;99.90;;;;;;5036847;28;20479;-51
2021/10/24 09:11:58;;;;;;;9.50;8.60;;;9.20;99.90;;;;;;5036156;28;20420;-53
2021/10/24 09:14:43;;;;;;;10.43;8.60;;;9.20;99.90;;;;;;5036623;28;20855;-55
2021/10/24 09:17:27;;;;;;;12.50;9.47;;;9.20;99.90;;;;;;5036170;28;20882;-53
2021/10/24 09:19:55;;;;;;;10.02;8.98;;;9.40;99.90;;;;;;5035657;28;20508;-53
2021/10/24 09:22:21;;;;;;;9.60;8.70;;;9.60;99.90;;;;;;5036528;28;20179;-53
2021/10/24 09:24:59;;;;;;;8.77;7.83;;;9.60;99.90;;;;;;5036228;28;20913;-54
2021/10/24 09:27:24;;;;;;;8.20;7.40;;;9.70;99.90;;;;;;5036181;28;20179;-58
2021/10/24 09:29:50;;;;;;;9.50;7.83;;;9.70;99.90;;;;;;5040024;28;20441;-55
2021/10/24 09:32:16;;;;;;;8.77;7.50;;;9.80;99.90;;;;;;5046239;28;20186;-54
2021/10/24 09:34:42;;;;;;;7.23;6.60;;;9.80;99.90;;;;;;5036112;28;20171;-56
2021/10/24 09:37:07;;;;;;;8.80;7.90;;;10.00;99.90;;;;;;5036186;28;20198;-56
2021/10/24 09:39:36;;;;;;;10.30;7.70;;;10.00;99.90;;;;;;5035914;28;20545;-54
2021/10/24 09:42:22;;;;;;;7.77;7.07;;;10.30;99.90;;;;;;5033422;28;20177;-54
2021/10/24 09:45:15;;;;;;;9.30;7.37;;;10.30;99.90;;;;;;5016410;28;20380;-53
2021/10/24 09:47:43;;;;;;;8.63;7.40;;;10.50;99.90;;;;;;5015899;28;20922;-55
2021/10/24 09:50:32;;;;;;;8.20;6.90;;;10.60;99.90;;;;;;5015861;28;20517;-50
2021/10/24 09:53:18;;;;;;;9.47;7.20;;;10.70;99.90;;;;;;5016617;28;20400;-55
2021/10/24 09:55:54;;;;;;;8.00;7.27;;;10.90;99.90;;;;;;5015715;28;20918;-51
2021/10/24 09:58:59;;;;;;;8.73;7.10;;;11.00;99.90;;;;;;5014462;28;20403;-51
2021/10/24 10:01:24;;;;;;;9.40;7.30;;;11.10;99.90;;;;;;5007159;28;20419;-53
2021/10/24 10:03:50;;;;;;;7.93;7.10;;;11.30;99.90;;;;;;5016558;28;20402;-54
2021/10/24 10:06:23;;;;;;;13.80;7.20;;;11.40;99.90;;;;;;5015673;28;20260;-55
2021/10/24 10:08:48;;;;;;;9.57;7.13;;;11.40;99.90;;;;;;5019707;28;20190;-52
2021/10/24 10:11:31;;;;;;;8.13;6.67;;;11.50;99.90;;;;;;5034045;28;20435;-53
2021/10/24 10:14:03;;;;;;;9.30;6.67;;;11.60;99.90;;;;;;5035322;28;20297;-56
2021/10/24 10:16:32;;;;;;;10.23;6.37;;;11.50;99.90;;;;;;5035363;28;20868;-53
2021/10/24 10:18:58;;;;;;;6.70;5.97;;;11.80;99.90;;;;;;5035131;28;20433;-56
2021/10/24 10:21:34;;;;;;;7.10;5.50;;;11.90;99.90;;;;;;5035316;28;20433;-54
2021/10/24 10:24:05;;;;;;;4.80;4.40;;;11.90;99.90;;;;;;5035326;28;20152;-55
2021/10/24 10:26:38;;;;;;;5.23;4.73;;;12.10;99.90;;;;;;5034853;28;20399;-54
2021/10/24 10:29:07;;;;;;;5.73;5.10;;;12.10;99.90;;;;;;5035387;28;20414;-55
2021/10/24 10:31:37;;;;;;;5.47;4.73;;;12.20;99.90;;;;;;5035177;28;20499;-53
2021/10/24 10:34:08;;;;;;;4.50;4.10;;;12.20;99.90;;;;;;5035071;28;20445;-54
2021/10/24 10:37:00;;;;;;;5.10;4.60;;;12.30;99.90;;;;;;5034812;28;20507;-52
2021/10/24 10:39:32;;;;;;;5.83;5.20;;;12.40;99.90;;;;;;5033438;28;20508;-53
2021/10/24 10:42:00;;;;;;;5.70;4.60;;;12.40;99.90;;;;;;5034765;28;20405;-53
2021/10/24 10:44:26;;;;;;;5.10;4.63;;;12.60;99.90;;;;;;5034919;28;20447;-52
2021/10/24 10:46:52;;;;;;;7.30;4.80;;;12.70;99.90;;;;;;5033866;28;20449;-59
2021/10/24 10:49:21;;;;;;;4.50;4.10;;;13.50;99.90;;;;;;5037344;28;20223;-54
2021/10/24 10:51:47;;;;;;;8.93;5.27;;;15.30;99.90;;;;;;5034779;28;20513;-54
2021/10/24 10:54:13;;;;;;;8.93;5.03;;;16.80;98.40;;;;;;5034335;28;20421;-57
2021/10/24 10:56:48;;;;;;;6.03;4.40;;;17.00;96.30;;;;;;5038899;28;20459;-57
2021/10/24 10:59:16;;;;;;;5.20;4.70;;;17.00;95.60;;;;;;5054816;28;20168;-55
2021/10/24 11:01:42;;;;;;;5.50;4.27;;;17.40;96.50;;;;;;5048350;28;20447;-52
2021/10/24 11:04:07;;;;;;;3.93;3.63;;;17.60;94.90;;;;;;5054328;28;20416;-55
2021/10/24 11:06:38;;;;;;;5.80;5.00;;;17.40;94.80;;;;;;5054422;28;20401;-52
2021/10/24 11:09:10;;;;;;;4.53;4.13;;;18.60;93.50;;;;;;5048118;28;20175;-51
2021/10/24 11:11:45;;;;;;;5.70;4.80;;;20.20;92.10;;;;;;5033884;28;20386;-52
2021/10/24 11:14:18;;;;;;;5.27;4.77;;;20.60;90.30;;;;;;5034210;28;20377;-56
2021/10/24 11:16:50;;;;;;;5.93;4.57;;;20.60;87.50;;;;;;5033996;28;20954;-56
2021/10/24 11:19:28;;;;;;;4.63;4.10;;;20.80;86.40;;;;;;5034011;28;20422;-54
2021/10/24 11:22:05;;;;;;;5.40;4.10;;;21.70;82.80;;;;;;5034299;28;20393;-53
2021/10/24 11:24:46;;;;;;;4.60;4.20;;;20.40;82.80;;;;;;5033927;28;20397;-55
2021/10/24 11:27:17;;;;;;;5.20;4.23;;;20.70;82.20;;;;;;5025216;28;20411;-55
2021/10/24 11:29:54;;;;;;;4.33;3.93;;;20.60;82.90;;;;;;5014211;28;20441;-56
2021/10/24 11:32:30;;;;;;;5.47;4.10;;;21.00;82.30;;;;;;5014092;28;20399;-54
2021/10/24 11:34:57;;;;;;;5.87;3.70;;;22.10;79.40;;;;;;5023741;28;20534;-56
2021/10/24 11:37:47;;;;;;;4.13;3.73;;;22.90;75.20;;;;;;5014650;28;20951;-54
2021/10/24 11:40:17;;;;;;;5.10;4.60;;;23.80;75.70;;;;;;5053484;23;20494;-56
2021/10/24 11:43:13;;;;;;;6.10;4.20;;;23.10;71.90;;;;;;5033346;28;20472;-54
2021/10/24 11:45:48;;;;;;;4.33;3.93;;;23.40;72.10;;;;;;5032791;28;20434;-57
2021/10/24 11:48:21;;;;;;;5.13;4.20;;;22.20;72.20;;;;;;5033675;28;20497;-54
2021/10/24 11:50:49;;;;;;;4.83;4.37;;;22.70;74.60;;;;;;5033776;28;20410;-56
2021/10/24 11:53:20;;;;;;;5.63;4.30;;;22.00;71.40;;;;;;5033497;28;20390;-54
2021/10/24 11:55:58;;;;;;;4.37;3.97;;;22.50;72.60;;;;;;5033312;28;20861;-58
2021/10/24 11:58:53;;;;;;;3.87;3.07;;;22.90;70.90;;;;;;5033437;28;20418;-58
2021/10/24 12:01:20;;;;;;;5.37;3.90;;;23.00;71.00;;;;;;5033363;28;20425;-59
2021/10/24 12:03:53;;;;;;;4.73;4.07;;;22.90;69.40;;;;;;5033590;28;20887;-58
2021/10/24 12:06:58;;;;;;;6.00;4.20;;;23.40;70.20;;;;;;5033300;28;20402;-57
2021/10/24 12:09:28;;;;;;;6.50;4.63;;;22.50;69.90;;;;;;5033720;28;20803;-59
2021/10/24 12:12:18;;;;;;;4.00;3.60;;;23.10;69.20;;;;;;5033277;28;20472;-57
2021/10/24 12:14:48;;;;;;;3.60;3.30;;;23.30;69.30;;;;;;5033165;28;20374;-60
2021/10/24 12:17:35;;;;;;;4.23;3.47;;;24.30;68.30;;;;;;5032831;28;20461;-59
2021/10/24 12:20:28;;;;;;;4.53;3.63;;;23.80;67.90;;;;;;5022013;28;20434;-60
2021/10/24 12:23:01;;;;;;;4.50;4.10;;;23.60;68.00;;;;;;5033207;28;20378;-59
2021/10/24 12:25:40;;;;;;;4.10;3.70;;;23.10;67.00;;;;;;5033229;28;20386;-60
2021/10/24 12:28:17;;;;;;;5.47;4.20;;;22.40;68.60;;;;;;5032744;28;20821;-59
2021/10/24 12:30:51;;;;;;;4.67;4.10;;;21.80;70.10;;;;;;5033096;28;20426;-59
2021/10/24 12:33:29;;;;;;;4.57;4.17;;;22.40;69.70;;;;;;5033444;28;20384;-60
2021/10/24 12:35:58;;;;;;;4.37;3.27;;;23.00;68.80;;;;;;5035960;28;20872;-59
2021/10/24 12:38:40;;;;;;;5.30;3.90;;;23.80;66.90;;;;;;5037205;28;20409;-59
2021/10/24 12:41:06;;;;;;;4.27;3.50;;;23.70;66.70;;;;;;5036641;28;20449;-60
2021/10/24 12:43:31;;;;;;;3.60;2.80;;;23.90;65.80;;;;;;5036843;28;20425;-56
2021/10/24 12:46:02;;;;;;;4.00;3.30;;;23.40;66.80;;;;;;5036341;28;20171;-58
2021/10/24 12:48:42;;;;;;;4.73;4.10;;;25.40;64.50;;;;;;5036763;28;20159;-59
2021/10/24 12:51:28;;;;;;;5.17;3.63;;;25.60;61.50;;;;;;5036708;28;20417;-59
2021/10/24 12:53:56;;;;;;;4.00;3.70;;;25.40;61.70;;;;;;5036841;28;20887;-59
2021/10/24 12:56:22;;;;;;;4.30;3.43;;;25.90;61.20;;;;;;5036258;28;20525;-58
2021/10/24 12:58:48;;;;;;;4.10;3.60;;;27.20;60.00;;;;;;5037072;28;20408;-58
2021/10/24 13:01:31;;;;;;;5.53;3.60;;;26.10;59.20;;;;;;5036558;28;20918;-59